sensor_id;sensor_type;location;lat;lon;timestamp;pressure;altitude;pressure_sealevel;temperature;humidity
38452;BME280;24231;52.514;13.438;2023-08-21T00:01:55;101673.94;;;22.96;67.00
38452;BME280;24231;52.514;13.438;2023-08-21T00:04:22;101673.63;;;23.29;64.85
38452;BME280;24231;52.514;13.438;2023-08-21T00:06:49;101676.08;;;23.24;64.78
38452;BME280;24231;52.514;13.438;2023-08-21T00:09:16;101673.34;;;22.64;67.80
38452;BME280;24231;52.514;13.438;2023-08-21T00:11:43;101666.79;;;24.43;60.31
38452;BME280;24231;52.514;13.438;2023-08-21T00:14:10;101669.57;;;23.14;65.43
38452;BME280;24231;52.514;13.438;2023-08-21T00:16:38;101667.38;;;22.48;68.40
38452;BME280;24231;52.514;13.438;2023-08-21T00:19:04;101665.19;;;23.39;64.77
38452;BME280;24231;52.514;13.438;2023-08-21T00:21:32;101668.82;;;23.37;64.57
38452;BME280;24231;52.514;13.438;2023-08-21T00:23:59;101666.86;;;24.23;62.08
38452;BME280;24231;52.514;13.438;2023-08-21T00:26:26;101665.37;;;23.80;63.21
38452;BME280;24231;52.514;13.438;2023-08-21T00:28:53;101670.58;;;22.34;69.88
38452;BME280;24231;52.514;13.438;2023-08-21T00:31:20;101667.42;;;23.24;67.20
38452;BME280;24231;52.514;13.438;2023-08-21T00:33:46;101669.35;;;22.88;68.28
38452;BME280;24231;52.514;13.438;2023-08-21T00:36:13;101667.49;;;22.57;69.53
38452;BME280;24231;52.514;13.438;2023-08-21T00:38:40;101669.23;;;22.42;69.92
38452;BME280;24231;52.514;13.438;2023-08-21T00:41:07;101667.52;;;22.43;69.66
38452;BME280;24231;52.514;13.438;2023-08-21T00:43:34;101663.22;;;22.68;69.35
38452;BME280;24231;52.514;13.438;2023-08-21T00:46:01;101668.33;;;23.38;65.95
38452;BME280;24231;52.514;13.438;2023-08-21T00:48:28;101669.48;;;22.97;67.74
38452;BME280;24231;52.514;13.438;2023-08-21T00:50:56;101672.50;;;22.46;69.92
38452;BME280;24231;52.514;13.438;2023-08-21T00:53:23;101672.09;;;22.61;69.15
38452;BME280;24231;52.514;13.438;2023-08-21T00:55:50;101670.40;;;22.19;71.15
38452;BME280;24231;52.514;13.438;2023-08-21T00:58:22;101670.30;;;21.74;73.09
38452;BME280;24231;52.514;13.438;2023-08-21T01:00:51;101667.94;;;22.10;72.31
38452;BME280;24231;52.514;13.438;2023-08-21T01:03:19;101669.41;;;23.17;67.65
38452;BME280;24231;52.514;13.438;2023-08-21T01:05:46;101673.14;;;23.17;68.29
38452;BME280;24231;52.514;13.438;2023-08-21T01:08:17;101674.86;;;22.62;69.57
38452;BME280;24231;52.514;13.438;2023-08-21T01:10:52;101668.89;;;23.13;67.25
38452;BME280;24231;52.514;13.438;2023-08-21T01:13:34;101672.82;;;22.44;70.30
38452;BME280;24231;52.514;13.438;2023-08-21T01:16:07;101676.40;;;23.66;65.31
38452;BME280;24231;52.514;13.438;2023-08-21T01:18:35;101676.05;;;24.12;63.14
38452;BME280;24231;52.514;13.438;2023-08-21T01:21:04;101675.66;;;23.44;65.69
38452;BME280;24231;52.514;13.438;2023-08-21T01:23:33;101675.78;;;23.65;65.11
38452;BME280;24231;52.514;13.438;2023-08-21T01:26:01;101671.87;;;22.33;70.69
38452;BME280;24231;52.514;13.438;2023-08-21T01:28:28;101672.87;;;22.65;70.21
38452;BME280;24231;52.514;13.438;2023-08-21T01:31:01;101670.71;;;21.73;74.03
38452;BME280;24231;52.514;13.438;2023-08-21T01:33:35;101675.60;;;21.46;76.09
38452;BME280;24231;52.514;13.438;2023-08-21T01:36:04;101671.74;;;21.87;74.32
38452;BME280;24231;52.514;13.438;2023-08-21T01:38:33;101666.18;;;21.96;74.15
38452;BME280;24231;52.514;13.438;2023-08-21T01:40:59;101664.87;;;22.29;72.34
38452;BME280;24231;52.514;13.438;2023-08-21T01:43:27;101661.82;;;22.71;70.10
38452;BME280;24231;52.514;13.438;2023-08-21T01:45:55;101657.89;;;22.42;70.88
38452;BME280;24231;52.514;13.438;2023-08-21T01:48:22;101647.60;;;22.06;72.19
38452;BME280;24231;52.514;13.438;2023-08-21T01:50:49;101645.86;;;22.86;68.70
38452;BME280;24231;52.514;13.438;2023-08-21T01:53:16;101642.66;;;22.42;70.93
38452;BME280;24231;52.514;13.438;2023-08-21T01:55:43;101645.51;;;22.37;70.70
38452;BME280;24231;52.514;13.438;2023-08-21T01:58:10;101648.01;;;22.51;71.17
38452;BME280;24231;52.514;13.438;2023-08-21T02:00:38;101650.70;;;22.38;70.75
38452;BME280;24231;52.514;13.438;2023-08-21T02:03:05;101647.75;;;22.61;71.14
38452;BME280;24231;52.514;13.438;2023-08-21T02:05:37;101647.03;;;22.11;72.18
38452;BME280;24231;52.514;13.438;2023-08-21T02:08:05;101653.34;;;22.36;71.23
38452;BME280;24231;52.514;13.438;2023-08-21T02:10:32;101648.72;;;22.64;69.68
38452;BME280;24231;52.514;13.438;2023-08-21T02:12:59;101643.55;;;22.79;69.56
38452;BME280;24231;52.514;13.438;2023-08-21T02:15:25;101640.51;;;22.90;69.05
38452;BME280;24231;52.514;13.438;2023-08-21T02:17:53;101642.75;;;22.64;69.66
38452;BME280;24231;52.514;13.438;2023-08-21T02:20:20;101640.28;;;22.75;69.31
38452;BME280;24231;52.514;13.438;2023-08-21T02:22:47;101647.56;;;22.32;70.35
38452;BME280;24231;52.514;13.438;2023-08-21T02:25:15;101644.59;;;22.60;69.38
38452;BME280;24231;52.514;13.438;2023-08-21T02:27:42;101643.35;;;23.01;67.30
38452;BME280;24231;52.514;13.438;2023-08-21T02:30:10;101644.85;;;22.51;68.53
38452;BME280;24231;52.514;13.438;2023-08-21T02:32:37;101645.95;;;22.53;68.89
38452;BME280;24231;52.514;13.438;2023-08-21T02:35:04;101648.04;;;22.36;69.31
38452;BME280;24231;52.514;13.438;2023-08-21T02:37:31;101652.78;;;22.58;68.81
38452;BME280;24231;52.514;13.438;2023-08-21T02:39:59;101650.77;;;22.67;67.96
38452;BME280;24231;52.514;13.438;2023-08-21T02:42:26;101650.20;;;22.34;69.69
38452;BME280;24231;52.514;13.438;2023-08-21T02:44:53;101645.57;;;22.07;70.81
38452;BME280;24231;52.514;13.438;2023-08-21T02:47:20;101646.62;;;22.17;70.27
38452;BME280;24231;52.514;13.438;2023-08-21T02:49:47;101645.60;;;22.16;70.33
38452;BME280;24231;52.514;13.438;2023-08-21T02:52:14;101646.74;;;22.24;69.49
38452;BME280;24231;52.514;13.438;2023-08-21T02:54:41;101646.72;;;22.52;68.89
38452;BME280;24231;52.514;13.438;2023-08-21T02:57:08;101650.57;;;22.72;67.27
38452;BME280;24231;52.514;13.438;2023-08-21T02:59:35;101653.65;;;23.10;65.78
38452;BME280;24231;52.514;13.438;2023-08-21T03:02:02;101649.74;;;22.80;67.14
38452;BME280;24231;52.514;13.438;2023-08-21T03:04:29;101650.64;;;22.90;66.70
38452;BME280;24231;52.514;13.438;2023-08-21T03:06:56;101648.51;;;23.98;63.40
38452;BME280;24231;52.514;13.438;2023-08-21T03:09:23;101646.75;;;23.31;65.14
38452;BME280;24231;52.514;13.438;2023-08-21T03:11:51;101641.62;;;24.39;60.34
38452;BME280;24231;52.514;13.438;2023-08-21T03:14:18;101640.17;;;23.24;63.82
38452;BME280;24231;52.514;13.438;2023-08-21T03:16:44;101642.35;;;23.68;62.19
38452;BME280;24231;52.514;13.438;2023-08-21T03:19:12;101644.67;;;23.59;63.29
38452;BME280;24231;52.514;13.438;2023-08-21T03:21:39;101644.14;;;22.92;65.48
38452;BME280;24231;52.514;13.438;2023-08-21T03:24:06;101640.41;;;23.68;62.16
38452;BME280;24231;52.514;13.438;2023-08-21T03:26:33;101638.59;;;23.79;61.79
38452;BME280;24231;52.514;13.438;2023-08-21T03:29:00;101645.58;;;23.13;63.95
38452;BME280;24231;52.514;13.438;2023-08-21T03:31:28;101641.91;;;22.74;64.70
38452;BME280;24231;52.514;13.438;2023-08-21T03:33:56;101635.65;;;24.19;60.57
38452;BME280;24231;52.514;13.438;2023-08-21T03:36:23;101636.28;;;24.93;57.48
38452;BME280;24231;52.514;13.438;2023-08-21T03:38:51;101637.31;;;23.48;61.82
38452;BME280;24231;52.514;13.438;2023-08-21T03:41:18;101642.17;;;23.62;61.77
38452;BME280;24231;52.514;13.438;2023-08-21T03:43:45;101643.17;;;24.72;58.01
38452;BME280;24231;52.514;13.438;2023-08-21T03:46:12;101639.97;;;24.31;59.27
38452;BME280;24231;52.514;13.438;2023-08-21T03:48:39;101638.51;;;24.15;59.49
38452;BME280;24231;52.514;13.438;2023-08-21T03:51:06;101644.41;;;22.91;63.34
38452;BME280;24231;52.514;13.438;2023-08-21T03:53:33;101644.64;;;22.94;63.72
38452;BME280;24231;52.514;13.438;2023-08-21T03:56:01;101646.52;;;22.94;63.63
38452;BME280;24231;52.514;13.438;2023-08-21T03:58:27;101650.34;;;22.66;64.65
38452;BME280;24231;52.514;13.438;2023-08-21T04:00:55;101656.67;;;22.52;65.43
38452;BME280;24231;52.514;13.438;2023-08-21T04:03:21;101655.40;;;22.53;65.31
38452;BME280;24231;52.514;13.438;2023-08-21T04:05:49;101656.82;;;23.43;62.27
38452;BME280;24231;52.514;13.438;2023-08-21T04:08:16;101659.34;;;23.33;62.52
38452;BME280;24231;52.514;13.438;2023-08-21T04:10:42;101659.86;;;23.31;62.56
38452;BME280;24231;52.514;13.438;2023-08-21T04:13:10;101659.79;;;23.60;61.34
38452;BME280;24231;52.514;13.438;2023-08-21T04:15:37;101661.88;;;23.79;60.38
38452;BME280;24231;52.514;13.438;2023-08-21T04:18:04;101663.97;;;23.76;60.22
38452;BME280;24231;52.514;13.438;2023-08-21T04:20:31;101665.51;;;23.26;62.47
38452;BME280;24231;52.514;13.438;2023-08-21T04:22:59;101664.99;;;23.58;60.59
38452;BME280;24231;52.514;13.438;2023-08-21T04:25:26;101667.03;;;23.54;60.66
38452;BME280;24231;52.514;13.438;2023-08-21T04:27:53;101671.06;;;25.02;56.25
38452;BME280;24231;52.514;13.438;2023-08-21T04:30:20;101666.65;;;24.13;59.17
38452;BME280;24231;52.514;13.438;2023-08-21T04:32:48;101673.56;;;22.96;63.20
38452;BME280;24231;52.514;13.438;2023-08-21T04:35:15;101672.28;;;22.94;62.96
38452;BME280;24231;52.514;13.438;2023-08-21T04:37:45;101671.01;;;22.83;63.72
38452;BME280;24231;52.514;13.438;2023-08-21T04:40:14;101675.24;;;22.57;64.51
38452;BME280;24231;52.514;13.438;2023-08-21T04:42:41;101676.37;;;22.90;63.30
38452;BME280;24231;52.514;13.438;2023-08-21T04:45:08;101681.34;;;23.61;61.03
38452;BME280;24231;52.514;13.438;2023-08-21T04:47:35;101684.31;;;24.70;56.65
38452;BME280;24231;52.514;13.438;2023-08-21T04:50:02;101689.40;;;25.66;53.38
38452;BME280;24231;52.514;13.438;2023-08-21T04:52:30;101687.65;;;25.59;53.22
38452;BME280;24231;52.514;13.438;2023-08-21T04:54:57;101687.79;;;25.68;53.17
38452;BME280;24231;52.514;13.438;2023-08-21T04:57:24;101686.39;;;25.76;52.67
38452;BME280;24231;52.514;13.438;2023-08-21T04:59:51;101688.91;;;24.28;57.30
38452;BME280;24231;52.514;13.438;2023-08-21T05:02:18;101694.97;;;25.57;53.86
38452;BME280;24231;52.514;13.438;2023-08-21T05:04:45;101688.17;;;26.88;50.26
38452;BME280;24231;52.514;13.438;2023-08-21T05:07:13;101685.11;;;27.35;48.78
38452;BME280;24231;52.514;13.438;2023-08-21T05:09:39;101688.57;;;27.05;49.67
38452;BME280;24231;52.514;13.438;2023-08-21T05:12:07;101695.10;;;26.58;51.01
38452;BME280;24231;52.514;13.438;2023-08-21T05:14:35;101694.60;;;26.47;51.09
38452;BME280;24231;52.514;13.438;2023-08-21T05:17:02;101693.42;;;26.86;49.98
38452;BME280;24231;52.514;13.438;2023-08-21T05:19:30;101695.49;;;25.20;54.26
38452;BME280;24231;52.514;13.438;2023-08-21T05:21:57;101700.24;;;25.47;53.53
38452;BME280;24231;52.514;13.438;2023-08-21T05:24:24;101695.28;;;26.16;51.99
38452;BME280;24231;52.514;13.438;2023-08-21T05:26:51;101692.71;;;26.91;49.92
38452;BME280;24231;52.514;13.438;2023-08-21T05:29:18;101692.06;;;28.04;47.24
38452;BME280;24231;52.514;13.438;2023-08-21T05:31:45;101691.67;;;27.94;47.15
38452;BME280;24231;52.514;13.438;2023-08-21T05:34:12;101695.07;;;29.02;44.49
38452;BME280;24231;52.514;13.438;2023-08-21T05:36:38;101696.30;;;29.23;43.55
38452;BME280;24231;52.514;13.438;2023-08-21T05:39:05;101696.86;;;29.60;42.85
38452;BME280;24231;52.514;13.438;2023-08-21T05:41:33;101697.10;;;29.63;42.75
38452;BME280;24231;52.514;13.438;2023-08-21T05:44:00;101697.87;;;29.42;43.02
38452;BME280;24231;52.514;13.438;2023-08-21T05:46:27;101697.57;;;30.54;41.02
38452;BME280;24231;52.514;13.438;2023-08-21T05:48:54;101695.98;;;30.29;41.39
38452;BME280;24231;52.514;13.438;2023-08-21T05:51:21;101697.27;;;30.73;40.53
38452;BME280;24231;52.514;13.438;2023-08-21T05:53:48;101703.66;;;29.71;42.66
38452;BME280;24231;52.514;13.438;2023-08-21T05:56:15;101698.92;;;30.54;40.83
38452;BME280;24231;52.514;13.438;2023-08-21T05:58:42;101704.51;;;27.00;48.63
38452;BME280;24231;52.514;13.438;2023-08-21T06:01:08;101705.35;;;27.81;47.15
38452;BME280;24231;52.514;13.438;2023-08-21T06:03:36;101702.64;;;26.07;51.72
38452;BME280;24231;52.514;13.438;2023-08-21T06:06:03;101699.24;;;27.56;48.99
38452;BME280;24231;52.514;13.438;2023-08-21T06:08:30;101704.02;;;26.25;51.98
38452;BME280;24231;52.514;13.438;2023-08-21T06:10:58;101701.56;;;28.16;47.55
38452;BME280;24231;52.514;13.438;2023-08-21T06:13:25;101702.81;;;26.88;50.33
38452;BME280;24231;52.514;13.438;2023-08-21T06:15:52;101697.14;;;26.85;50.57
38452;BME280;24231;52.514;13.438;2023-08-21T06:18:19;101705.98;;;25.59;53.25
38452;BME280;24231;52.514;13.438;2023-08-21T06:20:46;101704.72;;;25.46;53.66
38452;BME280;24231;52.514;13.438;2023-08-21T06:23:13;101700.26;;;25.86;52.67
38452;BME280;24231;52.514;13.438;2023-08-21T06:25:41;101697.83;;;26.39;50.53
38452;BME280;24231;52.514;13.438;2023-08-21T06:28:08;101702.37;;;28.03;46.76
38452;BME280;24231;52.514;13.438;2023-08-21T06:30:35;101706.51;;;28.25;45.42
38452;BME280;24231;52.514;13.438;2023-08-21T06:33:03;101716.80;;;27.71;46.34
38452;BME280;24231;52.514;13.438;2023-08-21T06:35:30;101721.54;;;27.93;45.77
38452;BME280;24231;52.514;13.438;2023-08-21T06:37:57;101715.32;;;28.66;44.20
38452;BME280;24231;52.514;13.438;2023-08-21T06:40:24;101720.47;;;29.48;42.62
38452;BME280;24231;52.514;13.438;2023-08-21T06:42:52;101721.58;;;28.35;44.45
38452;BME280;24231;52.514;13.438;2023-08-21T06:45:19;101723.37;;;28.24;44.62
38452;BME280;24231;52.514;13.438;2023-08-21T06:47:46;101727.49;;;29.76;41.49
38452;BME280;24231;52.514;13.438;2023-08-21T06:50:13;101724.88;;;30.04;41.12
38452;BME280;24231;52.514;13.438;2023-08-21T06:52:41;101717.86;;;31.05;39.66
38452;BME280;24231;52.514;13.438;2023-08-21T06:55:09;101721.28;;;30.25;40.93
38452;BME280;24231;52.514;13.438;2023-08-21T06:57:36;101722.94;;;29.80;41.19
38452;BME280;24231;52.514;13.438;2023-08-21T07:00:05;101718.99;;;30.92;39.26
38452;BME280;24231;52.514;13.438;2023-08-21T07:02:32;101724.82;;;29.97;41.26
38452;BME280;24231;52.514;13.438;2023-08-21T07:05:00;101720.23;;;31.50;38.42
38452;BME280;24231;52.514;13.438;2023-08-21T07:07:27;101716.24;;;31.34;38.50
38452;BME280;24231;52.514;13.438;2023-08-21T07:09:54;101717.05;;;32.07;37.30
38452;BME280;24231;52.514;13.438;2023-08-21T07:12:22;101711.24;;;32.35;37.46
38452;BME280;24231;52.514;13.438;2023-08-21T07:14:49;101714.88;;;33.25;35.10
38452;BME280;24231;52.514;13.438;2023-08-21T07:17:16;101715.45;;;32.99;35.83
38452;BME280;24231;52.514;13.438;2023-08-21T07:19:43;101713.05;;;32.71;34.51
38452;BME280;24231;52.514;13.438;2023-08-21T07:22:11;101715.32;;;33.24;33.90
38452;BME280;24231;52.514;13.438;2023-08-21T07:24:38;101716.82;;;33.47;33.80
38452;BME280;24231;52.514;13.438;2023-08-21T07:27:05;101715.93;;;33.11;34.58
38452;BME280;24231;52.514;13.438;2023-08-21T07:29:33;101720.35;;;32.31;34.96
38452;BME280;24231;52.514;13.438;2023-08-21T07:32:01;101722.53;;;31.17;36.54
38452;BME280;24231;52.514;13.438;2023-08-21T07:34:28;101727.57;;;31.79;35.54
38452;BME280;24231;52.514;13.438;2023-08-21T07:36:56;101729.79;;;31.97;35.45
38452;BME280;24231;52.514;13.438;2023-08-21T07:39:23;101727.29;;;31.65;35.90
38452;BME280;24231;52.514;13.438;2023-08-21T07:41:51;101725.70;;;31.47;36.09
38452;BME280;24231;52.514;13.438;2023-08-21T07:44:18;101725.96;;;31.84;35.14
38452;BME280;24231;52.514;13.438;2023-08-21T07:46:45;101729.18;;;32.36;34.60
38452;BME280;24231;52.514;13.438;2023-08-21T07:49:13;101731.56;;;32.48;33.96
38452;BME280;24231;52.514;13.438;2023-08-21T07:51:40;101733.90;;;32.08;34.00
38452;BME280;24231;52.514;13.438;2023-08-21T07:54:07;101738.54;;;31.95;34.65
38452;BME280;24231;52.514;13.438;2023-08-21T07:56:36;101741.50;;;32.22;34.20
38452;BME280;24231;52.514;13.438;2023-08-21T07:59:04;101739.22;;;31.71;34.57
38452;BME280;24231;52.514;13.438;2023-08-21T08:01:31;101739.72;;;32.36;33.65
38452;BME280;24231;52.514;13.438;2023-08-21T08:03:58;101736.85;;;32.47;33.06
38452;BME280;24231;52.514;13.438;2023-08-21T08:06:25;101738.41;;;32.58;33.19
38452;BME280;24231;52.514;13.438;2023-08-21T08:08:58;101739.07;;;32.17;34.01
38452;BME280;24231;52.514;13.438;2023-08-21T08:11:26;101741.25;;;32.22;31.60
38452;BME280;24231;52.514;13.438;2023-08-21T08:13:53;101742.71;;;31.76;33.03
38452;BME280;24231;52.514;13.438;2023-08-21T08:16:19;101744.55;;;31.49;32.67
38452;BME280;24231;52.514;13.438;2023-08-21T08:18:47;101747.36;;;30.87;34.30
38452;BME280;24231;52.514;13.438;2023-08-21T08:21:14;101752.18;;;30.31;33.85
38452;BME280;24231;52.514;13.438;2023-08-21T08:23:42;101740.94;;;31.11;32.71
38452;BME280;24231;52.514;13.438;2023-08-21T08:26:09;101743.73;;;29.26;35.24
38452;BME280;24231;52.514;13.438;2023-08-21T08:28:37;101742.23;;;29.24;35.69
38452;BME280;24231;52.514;13.438;2023-08-21T08:31:04;101742.46;;;29.54;34.46
38452;BME280;24231;52.514;13.438;2023-08-21T08:33:32;101743.40;;;30.13;33.99
38452;BME280;24231;52.514;13.438;2023-08-21T08:35:59;101746.84;;;30.31;33.70
38452;BME280;24231;52.514;13.438;2023-08-21T08:38:27;101749.80;;;30.09;35.01
38452;BME280;24231;52.514;13.438;2023-08-21T08:40:55;101749.74;;;30.05;34.98
38452;BME280;24231;52.514;13.438;2023-08-21T08:43:25;101743.94;;;31.29;33.46
38452;BME280;24231;52.514;13.438;2023-08-21T08:45:56;101747.17;;;31.95;32.24
38452;BME280;24231;52.514;13.438;2023-08-21T08:48:24;101749.44;;;30.90;33.19
38452;BME280;24231;52.514;13.438;2023-08-21T08:50:52;101749.81;;;31.40;30.64
38452;BME280;24231;52.514;13.438;2023-08-21T08:53:20;101752.05;;;31.04;31.26
38452;BME280;24231;52.514;13.438;2023-08-21T08:55:48;101745.62;;;31.45;30.34
38452;BME280;24231;52.514;13.438;2023-08-21T08:58:16;101744.37;;;31.21;29.41
38452;BME280;24231;52.514;13.438;2023-08-21T09:00:43;101746.31;;;31.02;29.74
38452;BME280;24231;52.514;13.438;2023-08-21T09:03:10;101743.53;;;30.92;29.73
38452;BME280;24231;52.514;13.438;2023-08-21T09:05:39;101747.05;;;30.67;29.11
38452;BME280;24231;52.514;13.438;2023-08-21T09:08:10;101739.77;;;31.30;28.31
38452;BME280;24231;52.514;13.438;2023-08-21T09:10:39;101739.15;;;31.45;26.56
38452;BME280;24231;52.514;13.438;2023-08-21T09:13:12;101737.81;;;31.31;26.74
38452;BME280;24231;52.514;13.438;2023-08-21T09:15:41;101739.07;;;32.30;25.01
38452;BME280;24231;52.514;13.438;2023-08-21T09:18:09;101732.20;;;32.59;25.41
38452;BME280;24231;52.514;13.438;2023-08-21T09:20:37;101735.03;;;32.05;23.11
38452;BME280;24231;52.514;13.438;2023-08-21T09:23:04;101730.33;;;32.47;23.67
38452;BME280;24231;52.514;13.438;2023-08-21T09:25:35;101730.51;;;32.58;23.66
38452;BME280;24231;52.514;13.438;2023-08-21T09:28:06;101733.49;;;32.16;23.19
38452;BME280;24231;52.514;13.438;2023-08-21T09:30:51;101730.59;;;32.45;23.58
38452;BME280;24231;52.514;13.438;2023-08-21T09:33:19;101731.17;;;32.25;24.33
38452;BME280;24231;52.514;13.438;2023-08-21T09:35:48;101729.37;;;31.45;25.71
38452;BME280;24231;52.514;13.438;2023-08-21T09:38:15;101732.03;;;30.68;26.69
38452;BME280;24231;52.514;13.438;2023-08-21T09:40:44;101732.19;;;31.19;26.68
38452;BME280;24231;52.514;13.438;2023-08-21T09:43:16;101732.54;;;31.46;26.39
38452;BME280;24231;52.514;13.438;2023-08-21T09:45:46;101731.72;;;31.26;27.03
38452;BME280;24231;52.514;13.438;2023-08-21T09:48:14;101729.92;;;31.47;26.74
38452;BME280;24231;52.514;13.438;2023-08-21T09:50:41;101727.86;;;31.38;26.80
38452;BME280;24231;52.514;13.438;2023-08-21T09:53:09;101724.01;;;31.68;26.69
38452;BME280;24231;52.514;13.438;2023-08-21T09:55:38;101720.26;;;31.38;27.09
38452;BME280;24231;52.514;13.438;2023-08-21T09:58:06;101722.81;;;31.84;27.18
38452;BME280;24231;52.514;13.438;2023-08-21T10:00:36;101722.07;;;31.35;27.09
38452;BME280;24231;52.514;13.438;2023-08-21T10:03:06;101715.16;;;31.60;27.13
38452;BME280;24231;52.514;13.438;2023-08-21T10:05:35;101717.52;;;31.72;26.90
38452;BME280;24231;52.514;13.438;2023-08-21T10:08:04;101716.05;;;31.12;27.22
38452;BME280;24231;52.514;13.438;2023-08-21T10:10:33;101721.45;;;30.73;27.91
38452;BME280;24231;52.514;13.438;2023-08-21T10:13:00;101721.79;;;30.95;26.90
38452;BME280;24231;52.514;13.438;2023-08-21T10:15:28;101722.77;;;31.10;26.99
38452;BME280;24231;52.514;13.438;2023-08-21T10:17:56;101722.57;;;31.54;26.39
38452;BME280;24231;52.514;13.438;2023-08-21T10:20:25;101720.50;;;31.52;26.61
38452;BME280;24231;52.514;13.438;2023-08-21T10:22:54;101726.81;;;32.02;26.13
38452;BME280;24231;52.514;13.438;2023-08-21T10:25:23;101725.39;;;32.60;25.93
38452;BME280;24231;52.514;13.438;2023-08-21T10:27:52;101722.38;;;32.57;26.01
38452;BME280;24231;52.514;13.438;2023-08-21T10:30:21;101725.38;;;32.44;25.95
38452;BME280;24231;52.514;13.438;2023-08-21T10:32:50;101724.46;;;32.09;26.77
38452;BME280;24231;52.514;13.438;2023-08-21T10:35:19;101723.73;;;32.37;25.91
38452;BME280;24231;52.514;13.438;2023-08-21T10:38:18;101728.41;;;32.07;26.63
38452;BME280;24231;52.514;13.438;2023-08-21T10:41:05;101720.87;;;31.86;26.08
38452;BME280;24231;52.514;13.438;2023-08-21T10:43:40;101720.18;;;31.58;26.74
38452;BME280;24231;52.514;13.438;2023-08-21T10:46:07;101720.29;;;31.19;27.37
38452;BME280;24231;52.514;13.438;2023-08-21T10:48:35;101720.27;;;31.59;26.65
38452;BME280;24231;52.514;13.438;2023-08-21T10:51:04;101728.02;;;30.60;27.50
38452;BME280;24231;52.514;13.438;2023-08-21T10:53:32;101721.28;;;31.00;27.28
38452;BME280;24231;52.514;13.438;2023-08-21T10:56:02;101723.68;;;31.43;27.40
38452;BME280;24231;52.514;13.438;2023-08-21T10:58:34;101718.84;;;30.82;28.03
38452;BME280;24231;52.514;13.438;2023-08-21T11:01:02;101720.24;;;31.42;27.87
38452;BME280;24231;52.514;13.438;2023-08-21T11:03:29;101720.14;;;31.75;26.92
38452;BME280;24231;52.514;13.438;2023-08-21T11:06:04;101731.86;;;30.07;28.32
38452;BME280;24231;52.514;13.438;2023-08-21T11:08:32;101729.58;;;30.99;27.72
38452;BME280;24231;52.514;13.438;2023-08-21T11:10:59;101732.06;;;30.45;28.49
38452;BME280;24231;52.514;13.438;2023-08-21T11:13:26;101731.58;;;31.38;27.44
38452;BME280;24231;52.514;13.438;2023-08-21T11:15:58;101731.14;;;31.57;27.35
38452;BME280;24231;52.514;13.438;2023-08-21T11:18:30;101730.99;;;31.82;27.16
38452;BME280;24231;52.514;13.438;2023-08-21T11:21:06;101728.49;;;31.39;27.72
38452;BME280;24231;52.514;13.438;2023-08-21T11:23:34;101730.59;;;31.49;27.68
38452;BME280;24231;52.514;13.438;2023-08-21T11:26:02;101727.08;;;30.89;28.24
38452;BME280;24231;52.514;13.438;2023-08-21T11:28:31;101728.16;;;31.53;27.38
38452;BME280;24231;52.514;13.438;2023-08-21T11:30:59;101727.94;;;31.25;27.61
38452;BME280;24231;52.514;13.438;2023-08-21T11:33:28;101721.90;;;31.21;28.34
38452;BME280;24231;52.514;13.438;2023-08-21T11:35:56;101726.74;;;29.68;29.49
38452;BME280;24231;52.514;13.438;2023-08-21T11:38:25;101723.57;;;30.44;29.37
38452;BME280;24231;52.514;13.438;2023-08-21T11:40:53;101723.88;;;30.46;28.99
38452;BME280;24231;52.514;13.438;2023-08-21T11:43:22;101720.83;;;31.26;27.52
38452;BME280;24231;52.514;13.438;2023-08-21T11:45:49;101717.40;;;31.30;27.10
38452;BME280;24231;52.514;13.438;2023-08-21T11:48:19;101721.22;;;32.16;26.14
38452;BME280;24231;52.514;13.438;2023-08-21T11:50:48;101718.00;;;31.01;28.64
38452;BME280;24231;52.514;13.438;2023-08-21T11:53:14;101719.10;;;30.98;28.41
38452;BME280;24231;52.514;13.438;2023-08-21T11:55:42;101718.69;;;31.55;27.49
38452;BME280;24231;52.514;13.438;2023-08-21T11:58:08;101718.46;;;30.46;28.57
38452;BME280;24231;52.514;13.438;2023-08-21T12:00:40;101711.42;;;31.02;26.98
38452;BME280;24231;52.514;13.438;2023-08-21T12:03:07;101716.98;;;30.40;26.82
38452;BME280;24231;52.514;13.438;2023-08-21T12:05:33;101717.63;;;31.74;25.38
38452;BME280;24231;52.514;13.438;2023-08-21T12:08:00;101718.09;;;31.68;25.78
38452;BME280;24231;52.514;13.438;2023-08-21T12:10:29;101720.57;;;31.73;26.25
38452;BME280;24231;52.514;13.438;2023-08-21T12:12:56;101718.38;;;32.18;25.88
38452;BME280;24231;52.514;13.438;2023-08-21T12:15:24;101716.94;;;31.98;25.94
38452;BME280;24231;52.514;13.438;2023-08-21T12:17:51;101717.04;;;31.90;26.45
38452;BME280;24231;52.514;13.438;2023-08-21T12:20:18;101721.02;;;30.66;27.91
38452;BME280;24231;52.514;13.438;2023-08-21T12:22:45;101717.23;;;30.87;28.38
38452;BME280;24231;52.514;13.438;2023-08-21T12:25:13;101720.83;;;31.31;27.29
38452;BME280;24231;52.514;13.438;2023-08-21T12:27:40;101721.28;;;30.53;28.46
38452;BME280;24231;52.514;13.438;2023-08-21T12:30:07;101717.51;;;31.47;27.67
38452;BME280;24231;52.514;13.438;2023-08-21T12:32:35;101712.02;;;31.35;27.86
38452;BME280;24231;52.514;13.438;2023-08-21T12:35:03;101711.91;;;31.78;27.50
38452;BME280;24231;52.514;13.438;2023-08-21T12:37:30;101715.69;;;31.87;27.15
38452;BME280;24231;52.514;13.438;2023-08-21T12:39:57;101712.55;;;31.45;28.02
38452;BME280;24231;52.514;13.438;2023-08-21T12:42:23;101714.72;;;31.90;27.02
38452;BME280;24231;52.514;13.438;2023-08-21T12:44:50;101712.89;;;32.02;27.26